Prata, Brazil
Current Conditions -  °F | °C
As of 11:00 AM on Thursday 30 Oct 2014 (Local Time) from SBKG Reporting Station
Broken Clouds Broken Clouds  
Wind Chill: 86°   Ceiling: 3000
Heat Index: 87°   Visibility: 6mi
Dew Point: 63°   Wind: 17mph
Humidity: 45%   Direction: 110°ESE
Pressure: 30"   Gusts: NA
Location:  7.69°S, 37.08°W
Report Text: SBKG 301400Z 11015KT 9999 BKN030 30/17 Q1016
Loading
Personal Weather Stations






























Interactive Weather Map
Tropical Storm Tracking
New forecast layout! Learn more

10-Day Weather Forecast

Advertisements
Track Severe Weather on mobile